Santa Isabel, Brazil
Current Conditions -  °F | °C
As of 7:00 PM on Monday 20 Oct 2014 (Local Time) from SBGR Reporting Station
Broken Clouds Broken Clouds  
Wind Chill: 64°   Ceiling: 1000
Heat Index: 64°   Visibility: 6mi
Dew Point: 63°   Wind: 8mph
Humidity: 94%   Direction: 170°S
Pressure: 30.12"   Gusts: NA
Location:  23.32°S, 46.22°W
Report Text: SBGR 202200Z 17007KT 9999 BKN010 18/17 Q1020
Loading
Personal Weather Stations






























Interactive Weather Map
Tropical Storm Tracking
New forecast layout! Learn more

10-Day Weather Forecast

Advertisements
Track Severe Weather on mobile